Time;durP1;ratioP1;P1;durP2;ratioP2;P2;SDS_P1;SDS_P2;PMS_P1;PMS_P2;Temp;Humidity;BMP_temperature;BMP_pressure;BME280_temperature;BME280_humidity;BME280_pressure;Samples;Min_cycle;Max_cycle;Signal;HPM_P1;HPM_P2
2023/01/14 00:01:22;;;;;;;4.57;1.90;;;7.00;99.90;;;;;;5051890;28;20894;-63
2023/01/14 00:03:49;;;;;;;5.55;2.25;;;7.00;99.90;;;;;;5052041;28;20423;-62
2023/01/14 00:06:18;;;;;;;4.78;1.80;;;7.00;99.90;;;;;;5052228;28;20420;-62
2023/01/14 00:08:45;;;;;;;4.95;1.42;;;7.00;99.90;;;;;;5051627;28;20913;-62
2023/01/14 00:11:14;;;;;;;4.33;1.90;;;7.00;99.90;;;;;;5051845;28;20417;-61
2023/01/14 00:13:42;;;;;;;3.72;1.60;;;7.00;99.90;;;;;;5051379;28;20421;-63
2023/01/14 00:16:12;;;;;;;5.80;1.80;;;7.10;99.90;;;;;;5051863;28;20437;-63
2023/01/14 00:18:40;;;;;;;6.88;2.00;;;7.10;99.90;;;;;;5051763;28;20417;-62
2023/01/14 00:21:11;;;;;;;4.30;1.70;;;7.20;99.90;;;;;;5051463;28;20417;-63
2023/01/14 00:23:38;;;;;;;4.30;1.80;;;7.20;99.90;;;;;;5051507;28;20424;-62
2023/01/14 00:26:07;;;;;;;3.80;1.90;;;7.10;99.90;;;;;;5052938;28;20413;-62
2023/01/14 00:28:35;;;;;;;5.30;2.03;;;7.10;99.90;;;;;;5055784;28;20449;-62
2023/01/14 00:31:07;;;;;;;5.38;1.70;;;7.10;99.90;;;;;;5055762;28;20420;-62
2023/01/14 00:33:34;;;;;;;5.07;1.90;;;7.10;99.90;;;;;;5055712;28;20413;-62
2023/01/14 00:36:03;;;;;;;5.80;1.90;;;7.10;99.90;;;;;;5055514;28;20527;-63
2023/01/14 00:38:30;;;;;;;4.70;1.80;;;7.20;99.90;;;;;;5055639;28;20420;-62
2023/01/14 00:41:06;;;;;;;4.93;1.90;;;7.20;99.90;;;;;;5055310;28;20425;-62
2023/01/14 00:43:33;;;;;;;5.20;1.83;;;7.20;99.90;;;;;;5056274;28;20424;-62
2023/01/14 00:46:00;;;;;;;3.50;1.70;;;7.20;99.90;;;;;;5055609;28;20417;-62
2023/01/14 00:48:27;;;;;;;4.80;1.90;;;7.20;99.90;;;;;;5055666;28;20419;-62
2023/01/14 00:50:53;;;;;;;4.13;1.73;;;7.20;99.90;;;;;;5055140;28;20424;-62
2023/01/14 00:53:21;;;;;;;4.63;2.08;;;7.10;99.90;;;;;;5054994;28;20854;-62
2023/01/14 00:55:48;;;;;;;4.55;1.70;;;7.10;99.90;;;;;;5055352;28;20437;-64
2023/01/14 00:58:15;;;;;;;4.53;1.90;;;7.00;99.90;;;;;;5055049;28;20916;-62
2023/01/14 01:00:42;;;;;;;4.50;1.90;;;6.90;99.90;;;;;;5055313;28;20429;-62
2023/01/14 01:03:09;;;;;;;4.00;1.85;;;6.90;99.90;;;;;;5055233;28;20409;-61
2023/01/14 01:05:36;;;;;;;5.03;1.90;;;6.90;99.90;;;;;;5055170;28;20413;-62
2023/01/14 01:08:03;;;;;;;4.88;1.80;;;7.00;99.90;;;;;;5055234;28;20413;-63
2023/01/14 01:10:31;;;;;;;4.85;2.03;;;6.90;99.90;;;;;;5055335;28;20432;-62
2023/01/14 01:12:58;;;;;;;5.07;1.70;;;6.90;99.90;;;;;;5054889;28;20424;-63
2023/01/14 01:15:25;;;;;;;5.10;1.75;;;6.90;99.90;;;;;;5055148;28;20432;-61
2023/01/14 01:17:52;;;;;;;3.20;1.50;;;6.80;99.90;;;;;;5055203;28;20424;-61
2023/01/14 01:20:19;;;;;;;4.45;1.70;;;6.80;99.90;;;;;;5055240;28;20792;-62
2023/01/14 01:22:45;;;;;;;4.97;1.50;;;6.80;99.90;;;;;;5055046;28;20805;-62
2023/01/14 01:25:12;;;;;;;5.50;1.60;;;6.70;99.90;;;;;;5055186;28;20772;-62
2023/01/14 01:27:40;;;;;;;5.13;2.00;;;6.70;99.90;;;;;;5054527;28;20909;-61
2023/01/14 01:30:10;;;;;;;3.88;1.90;;;6.70;99.90;;;;;;5054876;28;20788;-62
2023/01/14 01:32:37;;;;;;;5.37;1.60;;;6.60;99.90;;;;;;5054728;28;20451;-62
2023/01/14 01:35:05;;;;;;;5.25;1.50;;;6.60;99.90;;;;;;5055117;28;20416;-62
2023/01/14 01:37:32;;;;;;;4.13;1.70;;;6.60;99.90;;;;;;5054130;28;20421;-62
2023/01/14 01:39:59;;;;;;;5.97;1.90;;;6.60;99.90;;;;;;5055105;28;20412;-62
2023/01/14 01:42:28;;;;;;;6.07;2.17;;;6.60;99.90;;;;;;5054795;28;20916;-62
2023/01/14 01:45:26;;;;;;;4.28;1.90;;;6.60;99.90;;;;;;5055156;28;20421;-62
2023/01/14 01:47:58;;;;;;;3.93;1.70;;;6.50;99.90;;;;;;5048725;28;20464;-63
2023/01/14 01:50:24;;;;;;;4.88;2.10;;;6.50;99.90;;;;;;5054359;28;20917;-61
2023/01/14 01:52:51;;;;;;;4.50;1.80;;;6.50;99.90;;;;;;5054659;28;20417;-62
2023/01/14 01:55:20;;;;;;;6.03;1.85;;;6.50;99.90;;;;;;5054489;28;20417;-62
2023/01/14 01:57:55;;;;;;;5.77;1.80;;;6.50;99.90;;;;;;5054486;28;20448;-62
2023/01/14 02:00:25;;;;;;;9.18;2.40;;;6.50;99.90;;;;;;5054440;28;20423;-62
2023/01/14 02:02:56;;;;;;;5.65;2.03;;;6.60;99.90;;;;;;5054294;28;20455;-62
2023/01/14 02:05:23;;;;;;;7.40;2.40;;;6.60;99.90;;;;;;5054189;28;20894;-61
2023/01/14 02:07:50;;;;;;;5.55;1.80;;;6.60;99.90;;;;;;5054357;28;20429;-62
2023/01/14 02:10:19;;;;;;;8.30;2.00;;;6.60;99.90;;;;;;5054669;28;20417;-61
2023/01/14 02:13:00;;;;;;;4.40;1.58;;;6.70;99.90;;;;;;5054189;28;20758;-61
2023/01/14 02:15:38;;;;;;;5.20;1.90;;;6.70;99.90;;;;;;5054108;28;20548;-62
2023/01/14 02:18:16;;;;;;;6.25;2.60;;;6.70;99.90;;;;;;5053803;28;20798;-61
2023/01/14 02:20:47;;;;;;;5.40;1.60;;;6.80;99.90;;;;;;5053585;28;20782;-63
2023/01/14 02:24:06;;;;;;;4.80;1.98;;;6.80;99.90;;;;;;5054019;28;20408;-61
2023/01/14 02:27:07;;;;;;;5.07;2.00;;;6.90;99.90;;;;;;5054340;28;20785;-61
2023/01/14 02:29:51;;;;;;;6.57;2.20;;;6.80;99.90;;;;;;5053753;28;20417;-63
2023/01/14 02:32:28;;;;;;;5.35;2.40;;;6.80;99.90;;;;;;5053574;28;20511;-62
2023/01/14 02:35:00;;;;;;;5.10;2.10;;;6.80;99.90;;;;;;5053638;28;20424;-62
2023/01/14 02:37:32;;;;;;;5.63;2.40;;;6.80;99.90;;;;;;5053438;28;20433;-62
2023/01/14 02:40:04;;;;;;;6.35;2.35;;;6.80;99.90;;;;;;5053599;28;20421;-61
2023/01/14 02:45:30;;;;;;;7.95;2.90;;;6.80;99.90;;;;;;5054446;28;20466;-61
2023/01/14 02:47:57;;;;;;;8.30;2.50;;;6.90;99.90;;;;;;5053390;28;20421;-63
2023/01/14 02:50:24;;;;;;;7.57;2.90;;;6.90;99.90;;;;;;5052675;28;20503;-62
2023/01/14 02:52:52;;;;;;;8.50;3.10;;;6.90;99.90;;;;;;5053834;28;20421;-62
2023/01/14 02:55:29;;;;;;;7.47;2.57;;;7.00;99.90;;;;;;5053688;28;20422;-62
2023/01/14 02:58:19;;;;;;;9.98;2.90;;;7.00;99.90;;;;;;5053939;28;20417;-62
2023/01/14 03:00:56;;;;;;;9.07;3.00;;;7.00;99.90;;;;;;5054115;28;20416;-62
2023/01/14 03:03:37;;;;;;;8.43;2.70;;;7.00;99.90;;;;;;5054215;28;20413;-62
2023/01/14 03:06:20;;;;;;;5.70;2.92;;;7.00;99.90;;;;;;5054222;28;20413;-63
2023/01/14 03:08:52;;;;;;;7.10;2.70;;;6.90;99.90;;;;;;5054011;28;20425;-62
2023/01/14 03:11:19;;;;;;;7.70;2.70;;;6.90;99.90;;;;;;5054089;28;20453;-62
2023/01/14 03:13:51;;;;;;;6.15;2.58;;;7.00;99.90;;;;;;5052939;28;20496;-63
2023/01/14 03:16:28;;;;;;;8.48;3.00;;;7.00;99.90;;;;;;5053286;28;20440;-63
2023/01/14 03:19:01;;;;;;;5.90;2.33;;;7.00;99.90;;;;;;5053212;28;20405;-65
2023/01/14 03:21:32;;;;;;;8.77;2.83;;;7.00;99.90;;;;;;5053066;28;20424;-63
2023/01/14 03:24:02;;;;;;;11.00;2.60;;;7.00;99.90;;;;;;5052463;28;20418;-64
2023/01/14 03:26:32;;;;;;;9.88;2.30;;;7.10;99.90;;;;;;5052481;28;20446;-62
2023/01/14 03:29:02;;;;;;;7.37;2.80;;;7.10;99.90;;;;;;5052922;28;20431;-62
2023/01/14 03:31:35;;;;;;;11.85;2.90;;;7.10;99.90;;;;;;5053559;28;20757;-62
2023/01/14 03:34:07;;;;;;;4.95;2.80;;;7.10;99.90;;;;;;5053512;28;20421;-62
2023/01/14 03:36:36;;;;;;;8.68;3.38;;;7.20;99.90;;;;;;5053137;28;20424;-62
2023/01/14 03:39:06;;;;;;;9.23;3.30;;;7.20;99.90;;;;;;5053694;28;20746;-62
2023/01/14 03:44:25;;;;;;;9.13;3.78;;;7.20;99.90;;;;;;5052333;28;20403;-62
2023/01/14 03:46:54;;;;;;;9.27;3.20;;;7.20;99.90;;;;;;5052212;28;20414;-61
2023/01/14 03:49:21;;;;;;;9.40;3.80;;;7.20;99.90;;;;;;5052118;28;20406;-61
2023/01/14 03:51:54;;;;;;;7.10;3.50;;;7.30;99.90;;;;;;5052059;28;20513;-62
2023/01/14 03:54:25;;;;;;;14.05;3.92;;;7.30;99.90;;;;;;5051791;28;20410;-61
2023/01/14 03:56:59;;;;;;;7.93;3.60;;;7.30;99.90;;;;;;5052197;28;20428;-63
2023/01/14 03:59:33;;;;;;;10.18;4.45;;;7.30;99.90;;;;;;5052034;28;20413;-62
2023/01/14 04:02:03;;;;;;;7.20;3.45;;;7.30;99.90;;;;;;5051606;28;20428;-63
2023/01/14 04:04:31;;;;;;;10.73;4.10;;;7.30;99.90;;;;;;5051560;28;20992;-62
2023/01/14 04:06:58;;;;;;;11.05;4.22;;;7.30;99.90;;;;;;5051879;28;20417;-62
2023/01/14 04:10:58;;;;;;;13.00;4.38;;;7.30;99.90;;;;;;5110719;27;20360;-62
2023/01/14 04:16:09;;;;;;;10.23;4.90;;;7.40;99.90;;;;;;5109971;28;20396;-64
2023/01/14 04:18:36;;;;;;;12.93;5.45;;;7.40;99.90;;;;;;5110008;28;20435;-64
2023/01/14 04:21:03;;;;;;;12.95;5.20;;;7.40;99.90;;;;;;5109565;28;20885;-63
2023/01/14 04:23:30;;;;;;;11.15;5.40;;;7.40;99.90;;;;;;5083893;22;20434;-65
2023/01/14 04:25:59;;;;;;;14.68;5.60;;;7.40;99.90;;;;;;5049950;28;20410;-63
2023/01/14 04:28:26;;;;;;;14.73;5.97;;;7.40;99.90;;;;;;5050007;28;20415;-64
2023/01/14 04:30:53;;;;;;;12.85;5.75;;;7.40;99.90;;;;;;5049743;28;20933;-63
2023/01/14 04:33:20;;;;;;;13.75;5.88;;;7.50;99.90;;;;;;5050614;28;20414;-63
2023/01/14 04:35:48;;;;;;;11.52;6.32;;;7.50;99.90;;;;;;5050750;28;20418;-63
2023/01/14 04:38:15;;;;;;;12.82;5.80;;;7.50;99.90;;;;;;5050926;28;20501;-63
2023/01/14 04:40:41;;;;;;;13.53;6.57;;;7.50;99.90;;;;;;5050897;28;20460;-64
2023/01/14 04:43:10;;;;;;;13.93;6.30;;;7.50;99.90;;;;;;5049885;28;20782;-63
2023/01/14 04:45:37;;;;;;;17.75;6.30;;;7.50;99.90;;;;;;5049276;28;20418;-63
2023/01/14 04:48:04;;;;;;;17.15;7.35;;;7.50;99.90;;;;;;5049040;28;20425;-63
2023/01/14 04:50:34;;;;;;;13.80;6.22;;;7.50;99.90;;;;;;5049636;28;20432;-65
2023/01/14 04:53:05;;;;;;;12.98;6.05;;;7.40;99.90;;;;;;5048932;28;20508;-64
2023/01/14 04:55:34;;;;;;;15.10;6.70;;;7.50;99.90;;;;;;5048737;28;20505;-64
2023/01/14 04:58:01;;;;;;;15.00;6.70;;;7.50;99.90;;;;;;5048778;28;20413;-63
2023/01/14 05:00:29;;;;;;;15.30;6.47;;;7.50;99.90;;;;;;5048906;28;20416;-63
2023/01/14 05:02:56;;;;;;;14.93;5.85;;;7.50;99.90;;;;;;5052492;28;20508;-63
2023/01/14 05:05:23;;;;;;;11.95;6.10;;;7.50;99.90;;;;;;5052340;28;20437;-63
2023/01/14 05:07:50;;;;;;;12.25;6.00;;;7.50;99.90;;;;;;5056937;28;20506;-63
2023/01/14 05:10:17;;;;;;;10.68;5.35;;;7.50;99.90;;;;;;5054553;28;20503;-63
2023/01/14 05:12:55;;;;;;;14.83;5.80;;;7.50;99.90;;;;;;5054072;28;20414;-64
2023/01/14 05:15:23;;;;;;;14.27;5.80;;;7.50;99.90;;;;;;5051793;28;20456;-64
2023/01/14 05:17:51;;;;;;;12.10;5.20;;;7.50;99.90;;;;;;5050192;28;20436;-62
2023/01/14 05:20:18;;;;;;;13.02;5.28;;;7.50;99.90;;;;;;5046882;28;20438;-64
2023/01/14 05:22:45;;;;;;;14.57;5.30;;;7.50;99.90;;;;;;5040582;28;21116;-62
2023/01/14 05:25:12;;;;;;;14.05;5.50;;;7.50;99.90;;;;;;5034567;28;20748;-62
2023/01/14 05:27:39;;;;;;;11.25;4.95;;;7.40;99.90;;;;;;5037766;28;20514;-64
2023/01/14 05:30:07;;;;;;;14.20;5.90;;;7.40;99.90;;;;;;5037206;28;20437;-63
2023/01/14 05:32:33;;;;;;;16.52;5.47;;;7.40;99.90;;;;;;5035911;28;20757;-63
2023/01/14 05:35:02;;;;;;;12.70;5.40;;;7.40;99.90;;;;;;5033834;28;20430;-61
2023/01/14 05:37:28;;;;;;;15.93;5.10;;;7.40;99.90;;;;;;5034067;28;20418;-64
2023/01/14 05:39:55;;;;;;;16.60;5.50;;;7.40;99.90;;;;;;5034550;28;20550;-63
2023/01/14 05:47:52;;;;;;;12.80;5.35;;;7.40;99.90;;;;;;5033285;28;20442;-62
2023/01/14 05:50:21;;;;;;;14.50;5.00;;;7.30;99.90;;;;;;5034290;28;20431;-64
2023/01/14 05:52:48;;;;;;;12.90;5.20;;;7.30;99.90;;;;;;5034315;28;20504;-63
2023/01/14 05:55:15;;;;;;;13.52;4.88;;;7.20;99.90;;;;;;5034424;28;20445;-63
2023/01/14 05:57:41;;;;;;;16.25;5.40;;;7.20;99.90;;;;;;5033322;28;20800;-64
2023/01/14 06:06:20;;;;;;;14.80;5.40;;;7.10;99.90;;;;;;5031209;28;20919;-62
2023/01/14 06:08:26;;;;;;;12.73;5.40;;;7.00;99.90;;;;;;5013864;28;20515;-63
2023/01/14 06:10:53;;;;;;;17.90;5.63;;;6.90;99.90;;;;;;5024807;28;20427;-64
2023/01/14 06:13:22;;;;;;;13.68;5.30;;;6.90;99.90;;;;;;5032178;28;20443;-64
2023/01/14 06:15:51;;;;;;;16.15;5.50;;;6.90;99.90;;;;;;5034036;28;20438;-63
2023/01/14 06:18:21;;;;;;;14.20;5.35;;;6.90;99.90;;;;;;5033224;28;20795;-64
2023/01/14 06:20:50;;;;;;;17.93;5.43;;;6.90;99.90;;;;;;5033309;28;20563;-64
2023/01/14 06:23:18;;;;;;;10.77;4.95;;;6.90;99.90;;;;;;5044966;28;20413;-64
2023/01/14 06:25:45;;;;;;;12.82;4.93;;;6.90;99.90;;;;;;5045050;28;20430;-62
2023/01/14 06:28:13;;;;;;;10.85;4.43;;;7.00;99.90;;;;;;5035299;28;20431;-62
2023/01/14 06:30:39;;;;;;;12.20;4.63;;;7.00;99.90;;;;;;5037520;28;20427;-63
2023/01/14 06:33:07;;;;;;;12.45;4.70;;;7.10;99.90;;;;;;5040473;28;20441;-62
2023/01/14 06:35:34;;;;;;;12.20;4.70;;;7.10;99.90;;;;;;5038019;28;20489;-64
2023/01/14 06:38:02;;;;;;;13.02;4.65;;;7.10;99.90;;;;;;5042522;28;20439;-64
2023/01/14 06:40:28;;;;;;;15.30;5.20;;;7.20;99.90;;;;;;5042786;28;20783;-64
2023/01/14 06:42:55;;;;;;;14.50;4.80;;;7.20;99.90;;;;;;5042122;28;20437;-63
2023/01/14 06:45:23;;;;;;;14.70;4.97;;;7.20;99.90;;;;;;5051564;28;20525;-64
2023/01/14 06:47:50;;;;;;;13.38;4.43;;;7.20;99.90;;;;;;5044142;28;20445;-63
2023/01/14 06:50:18;;;;;;;15.80;5.15;;;7.30;99.90;;;;;;5040277;28;20431;-64
2023/01/14 06:52:45;;;;;;;10.15;4.43;;;7.30;99.90;;;;;;5036150;28;20440;-64
2023/01/14 06:55:13;;;;;;;8.65;4.10;;;7.30;99.90;;;;;;5030070;28;20441;-63
2023/01/14 06:57:42;;;;;;;14.20;4.32;;;7.30;99.90;;;;;;5041941;28;20437;-63
2023/01/14 07:00:10;;;;;;;14.55;4.50;;;7.20;99.90;;;;;;5040464;28;20810;-63
2023/01/14 07:02:37;;;;;;;13.30;4.50;;;7.20;99.90;;;;;;5040008;28;20435;-62
2023/01/14 07:05:04;;;;;;;12.05;3.83;;;7.20;99.90;;;;;;5044214;28;20439;-64
2023/01/14 07:07:31;;;;;;;12.93;4.00;;;7.10;99.90;;;;;;5056748;28;20438;-64
2023/01/14 07:09:58;;;;;;;14.30;3.60;;;7.10;99.90;;;;;;5038028;28;20498;-65
2023/01/14 07:12:26;;;;;;;14.43;4.45;;;7.10;99.90;;;;;;5037897;28;20440;-65
2023/01/14 07:14:53;;;;;;;13.40;4.07;;;7.10;99.90;;;;;;5036051;28;20449;-63
2023/01/14 07:17:19;;;;;;;12.23;3.60;;;7.20;99.90;;;;;;5034370;28;20435;-63
2023/01/14 07:19:46;;;;;;;11.35;3.95;;;7.20;99.90;;;;;;5036683;28;20807;-64
2023/01/14 07:22:13;;;;;;;16.83;4.38;;;7.20;99.90;;;;;;5036102;28;20811;-64
2023/01/14 07:24:40;;;;;;;11.77;4.40;;;7.20;99.90;;;;;;5036847;28;20498;-63
2023/01/14 07:27:06;;;;;;;15.35;4.28;;;7.10;99.90;;;;;;5036712;28;20525;-64
2023/01/14 07:29:34;;;;;;;13.27;3.70;;;7.10;99.90;;;;;;5037596;28;20434;-62
2023/01/14 07:32:01;;;;;;;11.93;3.80;;;7.10;99.90;;;;;;5032376;28;20968;-64
2023/01/14 07:34:28;;;;;;;13.68;4.05;;;7.00;99.90;;;;;;5034263;28;20494;-64
2023/01/14 07:36:55;;;;;;;14.35;3.63;;;7.00;99.90;;;;;;5035381;28;20441;-62
2023/01/14 07:39:22;;;;;;;13.13;4.05;;;7.00;99.90;;;;;;5034884;28;20411;-61
2023/01/14 07:41:48;;;;;;;13.63;3.80;;;6.90;99.90;;;;;;5032691;28;20438;-64
2023/01/14 07:44:18;;;;;;;14.38;3.75;;;6.90;99.90;;;;;;5034718;28;20434;-64
2023/01/14 07:46:46;;;;;;;14.38;3.85;;;6.90;99.90;;;;;;5031847;28;20449;-64
2023/01/14 07:49:13;;;;;;;11.85;3.88;;;6.90;99.90;;;;;;5045944;28;20420;-63
2023/01/14 07:51:40;;;;;;;12.90;3.80;;;7.00;99.90;;;;;;5031677;28;20442;-63
2023/01/14 07:54:07;;;;;;;11.88;3.72;;;6.90;99.90;;;;;;5033466;28;20421;-64
2023/01/14 07:56:33;;;;;;;16.15;4.15;;;6.90;99.90;;;;;;5032959;28;20795;-64
2023/01/14 07:59:00;;;;;;;19.60;4.03;;;6.90;99.90;;;;;;5035370;28;20415;-64
2023/01/14 08:01:27;;;;;;;11.38;3.33;;;6.90;99.90;;;;;;5033830;28;20425;-63
2023/01/14 08:03:56;;;;;;;7.45;3.47;;;6.90;99.90;;;;;;5033654;28;20430;-63
2023/01/14 08:06:23;;;;;;;15.00;3.73;;;6.90;99.90;;;;;;5032544;28;20445;-63
2023/01/14 08:08:49;;;;;;;12.13;3.40;;;7.00;99.90;;;;;;5033099;28;20434;-63
2023/01/14 08:11:16;;;;;;;13.27;3.40;;;7.00;99.90;;;;;;5032591;28;20435;-64
2023/01/14 08:13:43;;;;;;;11.82;2.97;;;7.00;99.90;;;;;;5033176;28;20411;-63
2023/01/14 08:16:10;;;;;;;17.50;3.43;;;7.10;99.90;;;;;;5034792;28;20497;-64
2023/01/14 08:18:37;;;;;;;11.40;3.80;;;7.10;99.90;;;;;;5035718;28;20415;-64
2023/01/14 08:21:07;;;;;;;12.98;3.40;;;7.10;99.90;;;;;;5037804;28;20414;-64
2023/01/14 08:23:35;;;;;;;12.95;3.30;;;7.10;99.90;;;;;;5038651;28;20475;-64
2023/01/14 08:26:02;;;;;;;10.88;3.60;;;7.20;99.90;;;;;;5034744;28;20431;-63
2023/01/14 08:28:29;;;;;;;9.20;2.67;;;7.20;99.90;;;;;;5031541;28;20439;-63
2023/01/14 08:31:01;;;;;;;12.73;3.30;;;7.20;99.90;;;;;;5046585;28;20429;-64
2023/01/14 08:33:28;;;;;;;12.43;2.90;;;7.30;99.90;;;;;;5052824;28;20462;-63
2023/01/14 08:35:55;;;;;;;10.38;3.40;;;7.30;99.90;;;;;;5034422;28;20431;-63
2023/01/14 08:38:23;;;;;;;10.55;3.78;;;7.30;99.90;;;;;;5027828;28;20441;-64
2023/01/14 08:40:51;;;;;;;14.03;3.87;;;7.30;99.90;;;;;;5030788;28;21035;-65
2023/01/14 08:43:19;;;;;;;11.30;3.20;;;7.40;99.90;;;;;;5039756;28;20445;-64
2023/01/14 08:45:45;;;;;;;9.45;3.00;;;7.40;99.90;;;;;;5042778;28;20433;-63
2023/01/14 08:48:12;;;;;;;11.43;3.00;;;7.40;99.90;;;;;;5040359;28;20442;-63
2023/01/14 08:50:39;;;;;;;11.48;3.58;;;7.50;99.90;;;;;;5040203;28;20426;-64
2023/01/14 08:53:06;;;;;;;9.98;2.90;;;7.50;99.90;;;;;;5039365;28;20441;-63
2023/01/14 08:55:34;;;;;;;11.52;2.90;;;7.50;99.90;;;;;;5040106;28;20422;-64
2023/01/14 08:58:01;;;;;;;7.65;2.67;;;7.50;99.90;;;;;;5043893;28;20442;-64
2023/01/14 09:00:27;;;;;;;10.95;2.88;;;7.50;99.90;;;;;;5044290;28;20437;-64
2023/01/14 09:02:54;;;;;;;8.65;2.50;;;7.60;99.90;;;;;;5039112;28;20427;-63
2023/01/14 09:05:21;;;;;;;10.98;3.40;;;7.60;99.90;;;;;;5037185;28;20435;-62
2023/01/14 09:18:46;;;;;;;10.13;3.50;;;7.80;99.90;;;;;;5040417;28;20524;-64
2023/01/14 09:21:12;;;;;;;9.93;3.15;;;7.80;99.90;;;;;;5039890;28;20435;-64
2023/01/14 09:23:40;;;;;;;10.52;3.10;;;7.90;99.90;;;;;;5040784;28;20422;-64
2023/01/14 09:26:08;;;;;;;11.35;3.10;;;7.90;99.90;;;;;;5044036;28;20417;-65
2023/01/14 09:28:35;;;;;;;7.65;2.30;;;8.00;99.90;;;;;;5042708;28;20438;-63
2023/01/14 09:31:01;;;;;;;13.38;3.20;;;8.00;99.90;;;;;;5041588;28;20426;-64
2023/01/14 09:33:28;;;;;;;9.90;3.10;;;8.00;99.90;;;;;;5040086;28;20438;-64
2023/01/14 09:35:55;;;;;;;12.13;2.90;;;8.10;99.90;;;;;;5039675;28;20438;-64
2023/01/14 09:38:22;;;;;;;7.93;2.50;;;8.10;99.90;;;;;;5030998;28;20438;-64
2023/01/14 09:40:49;;;;;;;7.53;2.50;;;8.10;99.90;;;;;;5042005;28;20435;-62
2023/01/14 09:43:20;;;;;;;11.50;2.57;;;8.10;99.90;;;;;;5062877;28;20515;-63
2023/01/14 09:45:49;;;;;;;14.63;2.70;;;8.10;99.90;;;;;;5065068;28;20451;-64
2023/01/14 09:48:20;;;;;;;7.05;2.63;;;8.10;99.90;;;;;;5069896;28;20413;-64
2023/01/14 09:50:57;;;;;;;10.18;2.85;;;8.10;99.90;;;;;;5068387;28;20455;-64
2023/01/14 09:53:50;;;;;;;6.80;2.40;;;8.10;99.90;;;;;;5066934;28;20423;-63
2023/01/14 09:56:22;;;;;;;6.80;2.33;;;8.20;99.90;;;;;;5062529;28;20404;-64
2023/01/14 09:58:54;;;;;;;9.20;3.50;;;8.20;99.90;;;;;;5061702;28;20431;-64
2023/01/14 10:01:30;;;;;;;9.25;2.70;;;8.20;99.90;;;;;;5064487;28;20504;-64
2023/01/14 10:04:04;;;;;;;11.30;3.10;;;8.20;99.90;;;;;;5062552;28;20424;-64
2023/01/14 10:06:31;;;;;;;9.38;2.35;;;8.20;99.90;;;;;;5062597;28;20900;-64
2023/01/14 10:09:03;;;;;;;12.63;3.40;;;8.20;99.90;;;;;;5061837;28;20420;-64
2023/01/14 10:11:36;;;;;;;7.18;2.70;;;8.20;99.90;;;;;;5063972;28;20433;-64
2023/01/14 10:14:11;;;;;;;10.68;2.63;;;8.20;99.90;;;;;;5061590;28;20413;-64
2023/01/14 10:16:42;;;;;;;11.07;2.83;;;8.10;99.90;;;;;;5061623;28;20938;-63
2023/01/14 10:19:16;;;;;;;11.07;2.75;;;8.10;99.90;;;;;;5066396;28;20492;-63
2023/01/14 10:21:46;;;;;;;8.90;2.83;;;8.10;99.90;;;;;;5059055;28;20454;-64
2023/01/14 10:24:15;;;;;;;8.82;3.00;;;8.10;99.90;;;;;;5071506;23;20503;-63
2023/01/14 10:26:44;;;;;;;11.70;2.80;;;8.10;99.90;;;;;;5058683;28;20927;-63
2023/01/14 10:29:15;;;;;;;8.48;3.00;;;8.10;99.90;;;;;;5058980;28;20424;-60
2023/01/14 10:31:47;;;;;;;7.70;3.10;;;8.10;99.90;;;;;;5057817;28;20439;-62
2023/01/14 10:34:22;;;;;;;11.55;3.05;;;8.10;99.90;;;;;;5073539;28;20424;-63
2023/01/14 10:36:49;;;;;;;13.15;3.90;;;8.00;99.90;;;;;;5073630;28;20926;-61
2023/01/14 10:39:16;;;;;;;9.82;3.17;;;8.00;99.90;;;;;;5074424;28;20411;-62
2023/01/14 10:41:51;;;;;;;9.23;2.60;;;8.10;99.90;;;;;;5073863;28;20411;-63
2023/01/14 10:44:24;;;;;;;13.27;7.93;;;8.10;99.90;;;;;;5073997;28;20412;-63
2023/01/14 10:46:54;;;;;;;7.80;3.10;;;8.00;99.90;;;;;;5075233;28;20997;-64
2023/01/14 10:49:24;;;;;;;9.13;2.88;;;8.10;99.90;;;;;;5074321;28;20507;-62
2023/01/14 10:51:51;;;;;;;8.18;2.65;;;8.10;99.90;;;;;;5073524;28;20426;-63
2023/01/14 10:54:20;;;;;;;8.52;2.78;;;8.10;99.90;;;;;;5073718;28;20818;-63
2023/01/14 10:56:50;;;;;;;10.27;2.80;;;8.00;99.90;;;;;;5072660;28;20419;-62
2023/01/14 10:59:41;;;;;;;11.30;3.10;;;8.00;99.90;;;;;;5072994;28;20520;-62
2023/01/14 11:02:28;;;;;;;10.55;2.90;;;7.90;99.90;;;;;;5069207;28;20416;-62
2023/01/14 11:04:56;;;;;;;11.73;3.20;;;7.90;99.90;;;;;;5072749;28;20423;-62
2023/01/14 11:07:27;;;;;;;7.90;2.50;;;7.80;99.90;;;;;;5072822;28;20419;-63
2023/01/14 11:09:56;;;;;;;7.97;2.70;;;7.80;99.90;;;;;;5072785;28;20415;-62
2023/01/14 11:12:28;;;;;;;9.20;2.67;;;7.80;99.90;;;;;;5072813;28;20424;-64
2023/01/14 11:14:57;;;;;;;8.90;2.50;;;7.70;99.90;;;;;;5072867;28;20456;-63
2023/01/14 11:17:25;;;;;;;9.40;3.10;;;7.70;99.90;;;;;;5072868;28;20419;-63
2023/01/14 11:19:52;;;;;;;11.35;3.00;;;7.70;99.90;;;;;;5072904;28;20415;-63
2023/01/14 11:22:19;;;;;;;9.85;2.90;;;7.70;99.90;;;;;;5073045;28;20438;-62
2023/01/14 11:24:52;;;;;;;9.88;2.88;;;7.70;99.90;;;;;;5074779;28;20428;-63
2023/01/14 11:27:21;;;;;;;8.43;3.28;;;7.70;99.90;;;;;;5074629;28;20452;-62
2023/01/14 11:29:52;;;;;;;10.10;2.80;;;7.60;99.90;;;;;;5075796;28;20423;-62
2023/01/14 11:32:24;;;;;;;10.90;2.90;;;7.60;99.90;;;;;;5075672;28;20431;-62
2023/01/14 11:34:54;;;;;;;11.05;3.08;;;7.60;99.90;;;;;;5073935;28;20555;-61
2023/01/14 11:37:23;;;;;;;8.90;2.80;;;7.50;99.90;;;;;;5073135;28;20809;-60
2023/01/14 11:39:51;;;;;;;9.57;2.70;;;7.50;99.90;;;;;;5072471;28;20945;-62
2023/01/14 11:42:24;;;;;;;7.03;2.53;;;7.50;99.90;;;;;;5074698;28;20435;-63
2023/01/14 11:44:57;;;;;;;11.65;3.20;;;7.40;99.90;;;;;;5073891;28;20415;-61
2023/01/14 11:47:26;;;;;;;8.93;2.80;;;7.40;99.90;;;;;;5072741;28;20469;-62
2023/01/14 11:50:12;;;;;;;9.45;2.90;;;7.40;99.90;;;;;;5072146;28;20850;-62
2023/01/14 11:52:39;;;;;;;7.80;2.45;;;7.40;99.90;;;;;;5072494;28;20439;-62
2023/01/14 11:55:13;;;;;;;11.73;2.35;;;7.40;99.90;;;;;;5072479;28;20419;-62
2023/01/14 11:57:40;;;;;;;7.85;3.10;;;7.50;99.90;;;;;;5072401;28;20419;-62
2023/01/14 12:00:10;;;;;;;10.27;2.72;;;7.50;99.90;;;;;;5063931;28;20493;-62
2023/01/14 12:02:41;;;;;;;8.70;2.70;;;7.50;99.90;;;;;;5062521;28;20431;-60
2023/01/14 12:05:14;;;;;;;7.15;3.00;;;7.50;99.90;;;;;;5069760;28;20418;-69
2023/01/14 12:07:45;;;;;;;6.35;2.70;;;7.50;99.90;;;;;;5070701;28;20430;-63
2023/01/14 12:10:19;;;;;;;9.30;2.90;;;7.50;99.90;;;;;;5053302;28;20953;-62
2023/01/14 12:18:34;;;;;;;9.18;3.38;;;7.50;99.90;;;;;;5051361;28;20830;-63
2023/01/14 12:21:02;;;;;;;7.70;3.10;;;7.50;99.90;;;;;;5051954;28;20421;-61
2023/01/14 12:23:34;;;;;;;8.00;3.05;;;7.50;99.90;;;;;;5051575;28;20437;-60
2023/01/14 12:26:16;;;;;;;7.10;3.25;;;7.50;99.90;;;;;;5067439;28;20427;-62
2023/01/14 12:28:48;;;;;;;10.38;3.10;;;7.60;99.90;;;;;;5073020;28;20427;-62
2023/01/14 12:31:22;;;;;;;8.75;3.58;;;7.60;99.90;;;;;;5074744;28;20492;-61
2023/01/14 12:33:53;;;;;;;11.68;3.50;;;7.60;99.90;;;;;;5069917;28;20463;-62
2023/01/14 12:36:22;;;;;;;10.45;3.53;;;7.60;99.90;;;;;;5058026;28;20423;-62
2023/01/14 12:47:29;;;;;;;12.05;3.38;;;7.60;99.90;;;;;;5058714;28;20522;-62
2023/01/14 12:49:58;;;;;;;8.27;3.30;;;7.60;99.90;;;;;;5075550;28;20418;-61
2023/01/14 12:52:29;;;;;;;9.82;3.58;;;7.60;99.90;;;;;;5072323;28;20459;-62
2023/01/14 12:54:57;;;;;;;10.80;4.00;;;7.60;99.90;;;;;;5056539;28;20453;-62
2023/01/14 12:57:26;;;;;;;8.27;3.20;;;7.60;99.90;;;;;;5075183;28;20409;-62
2023/01/14 12:59:56;;;;;;;8.23;3.30;;;7.60;99.90;;;;;;5076038;28;20422;-61
2023/01/14 13:02:32;;;;;;;8.95;3.30;;;7.60;99.90;;;;;;5056465;28;20423;-61
2023/01/14 13:05:05;;;;;;;8.13;3.33;;;7.60;99.90;;;;;;5056778;28;20785;-65
2023/01/14 13:07:36;;;;;;;9.00;3.35;;;7.70;99.90;;;;;;5075576;28;20417;-62
2023/01/14 13:10:06;;;;;;;9.77;2.83;;;7.70;99.90;;;;;;5077269;28;20415;-66
2023/01/14 13:12:35;;;;;;;7.80;3.00;;;7.70;99.90;;;;;;5057750;28;20425;-62
2023/01/14 13:15:03;;;;;;;7.70;3.30;;;7.70;99.90;;;;;;5057719;28;20423;-62
2023/01/14 13:17:34;;;;;;;6.47;2.90;;;7.70;99.90;;;;;;5057843;28;20440;-63
2023/01/14 13:20:06;;;;;;;5.43;2.90;;;7.70;99.90;;;;;;5057421;28;20417;-65
2023/01/14 13:22:48;;;;;;;7.43;2.80;;;7.70;99.90;;;;;;5058674;28;20443;-62
2023/01/14 13:25:33;;;;;;;7.03;2.83;;;7.80;99.90;;;;;;5067635;28;20470;-62
2023/01/14 13:28:01;;;;;;;6.07;3.20;;;7.80;99.90;;;;;;5055588;28;20429;-61
2023/01/14 13:30:41;;;;;;;7.38;2.60;;;7.80;99.90;;;;;;5055132;28;20469;-61
2023/01/14 13:33:18;;;;;;;6.85;2.45;;;7.80;99.90;;;;;;5055598;28;20470;-63
2023/01/14 13:36:27;;;;;;;6.35;2.53;;;7.80;99.90;;;;;;5055977;28;20474;-62
2023/01/14 13:39:06;;;;;;;7.13;2.55;;;7.80;99.90;;;;;;5056070;28;20405;-62
2023/01/14 13:41:39;;;;;;;6.22;2.10;;;7.80;99.90;;;;;;5055332;28;20832;-62
2023/01/14 13:44:16;;;;;;;5.05;1.90;;;7.80;99.90;;;;;;5055694;28;20417;-61
2023/01/14 13:46:48;;;;;;;4.72;2.05;;;7.80;99.90;;;;;;5056112;28;20949;-63
2023/01/14 13:49:25;;;;;;;5.15;1.90;;;7.80;99.90;;;;;;5068300;28;20472;-61
2023/01/14 13:51:58;;;;;;;5.10;2.20;;;7.80;99.90;;;;;;5059849;28;20954;-62
2023/01/14 13:54:28;;;;;;;4.18;1.70;;;7.80;99.90;;;;;;5055788;28;20435;-62